Portada
METAR-TAF:

METAR-TAF

Aeroports :

Chiang Rai, Tailàndia

latitud: 19-57-08N, longitud: 099-52-59E, altitud: 390 m

Observació

L'informe es va fer fa 25 minuts, a les 09:00 UTC
Vent calma
Temperatura 30°C
Humitat 49%
Pressió 1013 hPa
Visibilitat 10 km o més
Escasses núvols a una alçada de 2800 ft

METAR: VTCT 200900Z 00000KT 9999 FEW028 30/18 Q1013 NOSIG

Hora: 16:25 (09:25 UTC)

Pronòstic

L'informe es va fer fa 4 hores i 25 minuts, a les 05:00 UTC
Pronòstic vàlid del 20 a les 06 UTC al 21 a les 12 UTC
Vent 5 kt del Sud/Sud-Est
Visibilitat 10 km o més
Escasses núvols a una alçada de 3000 ft
Evolucionant progressivament
l' 20 a les 21 UTC al 20 a les 23 UTC
Visibilitat: 4000 m
boirina
Evolucionant progressivament
l' 21 a les 01 UTC al 21 a les 03 UTC
Visibilitat 10 km o més

TAF: VTCT 200500Z 2006/2112 16005KT 9999 FEW030 BECMG 2021/2023 4000 BR BECMG 2101/2103 9999 NSW

Observacions i pronòstics meteorològics de més de 4000 aeroports (METAR i TAF).

Les estacions disponibles són els punts grocs i vermells al mapa.

Posi el ratolí al punt desitjat per veure el nom de l'estació.

Feu clic per veure les observacions i els pronòstics meteorològics.

Per canviar el mapa: feu clic els botons verds amb una creu de color negre per apropar; al botó verd amb un guió per allunyar la imatge; o en les fletxes verdes per a mapes adjacents.


METAR-TAF: